Archival Weather

Chicago O'Hare International

Chicago, Illinois (KORD)

Report from: Friday, September 23, 2022 2:51 PM CDT
Current time: Sunday, December 4, 2022 6:48 AM CST

Current weather
Weather history
Weather forecast

Temperature16.7°C (62.1°F)
Dew point5.0°C (41.0°F)
Winds 9 kts (4.6 m/s, 10.4 mph) South (170°)
Visibility10 mi. (16.1 km)
Clouds Few clouds 12,000 ft. (3,658 m)
Ceiling: Broken clouds 15,000 ft. (4,572 m)
Broken clouds 17,000 ft. (5,182 m)
Overcast 25,000 ft. (7,620 m)
Altimeter30.17 in.Hg (1022 mB)
Relative humidity46 %
Density altitude46 ft. (14 m)
Sea-level pressure102.2 kPa (1022 mB, 30.17 in.Hg)
Remarks Automated weather observing station with precipitation discriminator
Virga observed overhead
Flight conditions Visual Meteorological Conditions
Raw dataKORD 231951Z 17009KT 10SM FEW120 BKN150 BKN170 OVC250 17/05 A3017 RMK AO2 SLP217 VIRGA OHD T01670050
An error has occurred. This application may no longer respond until reloaded. Reload 🗙